Tarrants, Missouri
Current Conditions -  °F | °C
As of 6:15 AM on Thursday 18 Dec 2014 (Local Time) from KPPQ Reporting Station
Light Snow Light Snow  
Wind Chill: 27°   Ceiling: 600
Heat Index: 27°   Visibility: 1.5mi
Dew Point: 24°   Wind: 0mph
Humidity: 90%   Direction: NA
Pressure: 30.3"   Gusts: NA
Location:  39.321°N, 91.1912°W
Report Text: KPPQ 181215Z AUTO 00000KT 1 1/2SM -SN OVC006 M03/M04 A3030 RMK AO2 P0001 T10301044
Loading
Personal Weather Stations






























Interactive Weather Map New forecast layout! Learn more

10-Day Weather Forecast

Advertisements
Track Severe Weather on mobile